sensor_id;sensor_type;location;lat;lon;timestamp;pressure;altitude;pressure_sealevel;temperature;humidity
33155;BME280;19511;42.682;23.332;2023-05-27T00:00:47;95287.28;;;13.11;100.00
33155;BME280;19511;42.682;23.332;2023-05-27T00:03:12;95292.06;;;13.11;100.00
33155;BME280;19511;42.682;23.332;2023-05-27T00:05:37;95291.28;;;13.10;100.00
33155;BME280;19511;42.682;23.332;2023-05-27T00:08:03;95276.34;;;13.04;100.00
33155;BME280;19511;42.682;23.332;2023-05-27T00:10:29;95281.69;;;13.15;100.00
33155;BME280;19511;42.682;23.332;2023-05-27T00:12:58;95276.00;;;13.22;100.00
33155;BME280;19511;42.682;23.332;2023-05-27T00:15:26;95276.59;;;13.33;100.00
33155;BME280;19511;42.682;23.332;2023-05-27T00:17:57;95276.66;;;13.30;100.00
33155;BME280;19511;42.682;23.332;2023-05-27T00:20:23;95283.00;;;13.30;100.00
33155;BME280;19511;42.682;23.332;2023-05-27T00:22:51;95274.16;;;13.35;100.00
33155;BME280;19511;42.682;23.332;2023-05-27T00:25:17;95203.13;;;12.94;100.00
33155;BME280;19511;42.682;23.332;2023-05-27T00:27:46;95276.56;;;13.57;100.00
33155;BME280;19511;42.682;23.332;2023-05-27T00:30:11;95273.06;;;13.53;100.00
33155;BME280;19511;42.682;23.332;2023-05-27T00:32:37;95266.88;;;13.65;100.00
33155;BME280;19511;42.682;23.332;2023-05-27T00:35:09;95256.97;;;13.64;100.00
33155;BME280;19511;42.682;23.332;2023-05-27T00:37:35;95259.94;;;13.74;100.00
33155;BME280;19511;42.682;23.332;2023-05-27T00:40:00;95186.25;;;13.25;100.00
33155;BME280;19511;42.682;23.332;2023-05-27T00:42:30;95191.09;;;13.45;100.00
33155;BME280;19511;42.682;23.332;2023-05-27T00:44:55;95244.06;;;13.74;100.00
33155;BME280;19511;42.682;23.332;2023-05-27T00:47:26;95263.16;;;13.72;100.00
33155;BME280;19511;42.682;23.332;2023-05-27T00:49:55;95121.22;;;12.82;100.00
33155;BME280;19511;42.682;23.332;2023-05-27T00:52:20;95247.75;;;13.67;100.00
33155;BME280;19511;42.682;23.332;2023-05-27T00:54:46;95239.84;;;13.66;100.00
33155;BME280;19511;42.682;23.332;2023-05-27T00:57:12;95229.09;;;13.68;100.00
33155;BME280;19511;42.682;23.332;2023-05-27T00:59:37;95241.56;;;13.80;100.00
33155;BME280;19511;42.682;23.332;2023-05-27T01:02:07;95227.41;;;13.74;100.00
33155;BME280;19511;42.682;23.332;2023-05-27T01:04:34;95228.88;;;13.79;100.00
33155;BME280;19511;42.682;23.332;2023-05-27T01:07:20;95238.09;;;13.76;100.00
33155;BME280;19511;42.682;23.332;2023-05-27T01:15:07;95214.78;;;13.69;100.00
33155;BME280;19511;42.682;23.332;2023-05-27T01:17:35;95205.22;;;13.70;100.00
33155;BME280;19511;42.682;23.332;2023-05-27T01:20:03;95133.72;;;13.14;100.00
33155;BME280;19511;42.682;23.332;2023-05-27T01:22:31;95205.38;;;13.63;100.00
33155;BME280;19511;42.682;23.332;2023-05-27T01:25:00;95111.91;;;13.13;100.00
33155;BME280;19511;42.682;23.332;2023-05-27T01:27:26;95126.88;;;13.19;100.00
33155;BME280;19511;42.682;23.332;2023-05-27T01:29:59;95190.63;;;13.66;100.00
33155;BME280;19511;42.682;23.332;2023-05-27T01:32:41;95185.28;;;13.55;100.00
33155;BME280;19511;42.682;23.332;2023-05-27T01:35:20;95178.97;;;13.55;100.00
33155;BME280;19511;42.682;23.332;2023-05-27T01:37:48;95180.66;;;13.49;100.00
33155;BME280;19511;42.682;23.332;2023-05-27T01:40:16;95106.53;;;13.05;100.00
33155;BME280;19511;42.682;23.332;2023-05-27T01:42:45;95161.59;;;13.67;100.00
33155;BME280;19511;42.682;23.332;2023-05-27T01:45:15;95177.28;;;13.78;100.00
33155;BME280;19511;42.682;23.332;2023-05-27T01:47:43;95172.56;;;13.75;100.00
33155;BME280;19511;42.682;23.332;2023-05-27T01:50:11;95075.53;;;13.07;100.00
33155;BME280;19511;42.682;23.332;2023-05-27T01:52:36;95159.50;;;13.55;100.00
33155;BME280;19511;42.682;23.332;2023-05-27T01:55:02;95177.31;;;13.37;100.00
33155;BME280;19511;42.682;23.332;2023-05-27T01:57:29;95179.28;;;13.17;100.00
33155;BME280;19511;42.682;23.332;2023-05-27T01:59:56;95181.84;;;13.07;100.00
33155;BME280;19511;42.682;23.332;2023-05-27T02:02:21;95187.16;;;12.98;100.00
33155;BME280;19511;42.682;23.332;2023-05-27T02:04:47;95176.03;;;12.78;100.00
33155;BME280;19511;42.682;23.332;2023-05-27T02:07:12;95181.78;;;12.67;100.00
33155;BME280;19511;42.682;23.332;2023-05-27T02:09:42;95171.72;;;12.53;100.00
33155;BME280;19511;42.682;23.332;2023-05-27T02:12:12;95176.13;;;12.51;100.00
33155;BME280;19511;42.682;23.332;2023-05-27T02:14:38;95191.53;;;12.52;100.00
33155;BME280;19511;42.682;23.332;2023-05-27T02:17:04;95192.16;;;12.39;100.00
33155;BME280;19511;42.682;23.332;2023-05-27T02:19:30;95200.16;;;12.34;100.00
33155;BME280;19511;42.682;23.332;2023-05-27T02:21:55;95169.41;;;12.24;100.00
33155;BME280;19511;42.682;23.332;2023-05-27T02:24:25;95186.78;;;12.29;100.00
33155;BME280;19511;42.682;23.332;2023-05-27T02:26:54;95188.78;;;12.28;100.00
33155;BME280;19511;42.682;23.332;2023-05-27T02:29:20;95196.63;;;12.33;100.00
33155;BME280;19511;42.682;23.332;2023-05-27T02:31:45;95180.06;;;12.26;100.00
33155;BME280;19511;42.682;23.332;2023-05-27T02:34:13;95127.13;;;11.89;100.00
33155;BME280;19511;42.682;23.332;2023-05-27T02:36:38;95196.50;;;12.40;100.00
33155;BME280;19511;42.682;23.332;2023-05-27T02:39:04;95192.88;;;12.44;100.00
33155;BME280;19511;42.682;23.332;2023-05-27T02:41:29;95193.72;;;12.40;100.00
33155;BME280;19511;42.682;23.332;2023-05-27T02:43:55;95117.19;;;11.92;100.00
33155;BME280;19511;42.682;23.332;2023-05-27T02:46:20;95183.84;;;12.39;100.00
33155;BME280;19511;42.682;23.332;2023-05-27T02:48:46;95190.88;;;12.44;100.00
33155;BME280;19511;42.682;23.332;2023-05-27T02:51:16;95200.94;;;12.58;100.00
33155;BME280;19511;42.682;23.332;2023-05-27T02:53:44;95194.19;;;12.59;100.00
33155;BME280;19511;42.682;23.332;2023-05-27T02:56:09;95152.13;;;12.40;100.00
33155;BME280;19511;42.682;23.332;2023-05-27T02:58:35;95186.09;;;12.68;100.00
33155;BME280;19511;42.682;23.332;2023-05-27T03:01:00;95125.69;;;12.32;100.00
33155;BME280;19511;42.682;23.332;2023-05-27T03:03:26;95112.75;;;12.25;100.00
33155;BME280;19511;42.682;23.332;2023-05-27T03:05:55;95183.09;;;12.83;100.00
33155;BME280;19511;42.682;23.332;2023-05-27T03:08:25;95192.56;;;12.85;100.00
33155;BME280;19511;42.682;23.332;2023-05-27T03:10:58;95191.66;;;12.92;100.00
33155;BME280;19511;42.682;23.332;2023-05-27T03:13:26;95167.88;;;12.91;100.00
33155;BME280;19511;42.682;23.332;2023-05-27T03:15:51;95181.13;;;13.03;100.00
33155;BME280;19511;42.682;23.332;2023-05-27T03:18:23;95186.69;;;13.03;100.00
33155;BME280;19511;42.682;23.332;2023-05-27T03:20:53;95190.09;;;13.11;100.00
33155;BME280;19511;42.682;23.332;2023-05-27T03:23:19;95180.94;;;13.14;100.00
33155;BME280;19511;42.682;23.332;2023-05-27T03:25:49;95209.13;;;13.33;100.00
33155;BME280;19511;42.682;23.332;2023-05-27T03:28:20;95186.56;;;13.31;100.00
33155;BME280;19511;42.682;23.332;2023-05-27T03:30:49;95199.41;;;13.45;100.00
33155;BME280;19511;42.682;23.332;2023-05-27T03:33:24;95181.28;;;13.36;100.00
33155;BME280;19511;42.682;23.332;2023-05-27T03:35:50;95131.84;;;13.07;100.00
33155;BME280;19511;42.682;23.332;2023-05-27T03:38:16;95204.81;;;13.52;100.00
33155;BME280;19511;42.682;23.332;2023-05-27T03:40:43;95210.38;;;13.52;100.00
33155;BME280;19511;42.682;23.332;2023-05-27T03:43:09;95206.25;;;13.60;100.00
33155;BME280;19511;42.682;23.332;2023-05-27T03:45:34;95226.03;;;13.62;100.00
33155;BME280;19511;42.682;23.332;2023-05-27T03:48:00;95218.94;;;13.61;100.00
33155;BME280;19511;42.682;23.332;2023-05-27T03:50:29;95221.34;;;13.59;100.00
33155;BME280;19511;42.682;23.332;2023-05-27T03:52:55;95206.25;;;13.60;100.00
33155;BME280;19511;42.682;23.332;2023-05-27T03:55:20;95212.50;;;13.64;100.00
33155;BME280;19511;42.682;23.332;2023-05-27T03:57:46;95197.03;;;13.63;100.00
33155;BME280;19511;42.682;23.332;2023-05-27T04:00:12;95211.78;;;13.80;100.00
33155;BME280;19511;42.682;23.332;2023-05-27T04:02:39;95213.06;;;13.76;100.00
33155;BME280;19511;42.682;23.332;2023-05-27T04:05:08;95215.34;;;13.81;100.00
33155;BME280;19511;42.682;23.332;2023-05-27T04:07:34;95208.63;;;13.78;100.00
33155;BME280;19511;42.682;23.332;2023-05-27T04:10:00;95213.69;;;13.83;100.00
33155;BME280;19511;42.682;23.332;2023-05-27T04:12:29;95213.63;;;13.87;100.00
33155;BME280;19511;42.682;23.332;2023-05-27T04:14:54;95210.06;;;13.86;100.00
33155;BME280;19511;42.682;23.332;2023-05-27T04:17:21;95135.25;;;13.35;100.00
33155;BME280;19511;42.682;23.332;2023-05-27T04:19:47;95201.78;;;13.83;100.00
33155;BME280;19511;42.682;23.332;2023-05-27T04:22:14;95207.19;;;13.90;100.00
33155;BME280;19511;42.682;23.332;2023-05-27T04:24:39;95203.63;;;13.90;100.00
33155;BME280;19511;42.682;23.332;2023-05-27T04:27:06;95204.41;;;13.90;100.00
33155;BME280;19511;42.682;23.332;2023-05-27T04:29:32;95201.25;;;14.08;100.00
33155;BME280;19511;42.682;23.332;2023-05-27T04:31:59;95218.38;;;14.23;100.00
33155;BME280;19511;42.682;23.332;2023-05-27T04:34:28;95191.88;;;14.35;100.00
33155;BME280;19511;42.682;23.332;2023-05-27T04:36:53;95155.00;;;14.14;100.00
33155;BME280;19511;42.682;23.332;2023-05-27T04:39:26;95212.94;;;14.52;100.00
33155;BME280;19511;42.682;23.332;2023-05-27T04:41:52;95214.06;;;14.55;100.00
33155;BME280;19511;42.682;23.332;2023-05-27T04:44:17;95188.50;;;14.60;100.00
33155;BME280;19511;42.682;23.332;2023-05-27T04:46:43;95164.13;;;14.48;100.00
33155;BME280;19511;42.682;23.332;2023-05-27T04:49:09;95161.34;;;14.48;100.00
33155;BME280;19511;42.682;23.332;2023-05-27T04:51:40;95215.38;;;14.83;100.00
33155;BME280;19511;42.682;23.332;2023-05-27T04:54:08;95211.09;;;14.79;100.00
33155;BME280;19511;42.682;23.332;2023-05-27T04:56:38;95168.28;;;14.56;100.00
33155;BME280;19511;42.682;23.332;2023-05-27T04:59:03;95199.19;;;14.78;100.00
33155;BME280;19511;42.682;23.332;2023-05-27T05:01:32;95213.53;;;14.93;100.00
33155;BME280;19511;42.682;23.332;2023-05-27T05:04:14;95210.59;;;15.13;100.00
33155;BME280;19511;42.682;23.332;2023-05-27T05:06:41;95212.00;;;15.22;100.00
33155;BME280;19511;42.682;23.332;2023-05-27T05:09:06;95210.69;;;15.26;100.00
33155;BME280;19511;42.682;23.332;2023-05-27T05:11:34;95207.91;;;15.26;100.00
33155;BME280;19511;42.682;23.332;2023-05-27T05:13:59;95206.25;;;15.29;100.00
33155;BME280;19511;42.682;23.332;2023-05-27T05:16:31;95201.97;;;15.24;100.00
33155;BME280;19511;42.682;23.332;2023-05-27T05:18:57;95210.25;;;15.28;100.00
33155;BME280;19511;42.682;23.332;2023-05-27T05:21:22;95221.63;;;15.33;100.00
33155;BME280;19511;42.682;23.332;2023-05-27T05:23:47;95221.78;;;15.43;100.00
33155;BME280;19511;42.682;23.332;2023-05-27T05:26:13;95223.13;;;15.51;100.00
33155;BME280;19511;42.682;23.332;2023-05-27T05:28:42;95220.28;;;15.67;100.00
33155;BME280;19511;42.682;23.332;2023-05-27T05:31:09;95157.16;;;15.18;100.00
33155;BME280;19511;42.682;23.332;2023-05-27T05:33:38;95219.84;;;15.69;100.00
33155;BME280;19511;42.682;23.332;2023-05-27T05:36:07;95227.97;;;15.63;100.00
33155;BME280;19511;42.682;23.332;2023-05-27T05:38:33;95222.53;;;15.73;100.00
33155;BME280;19511;42.682;23.332;2023-05-27T05:41:08;95222.16;;;15.87;100.00
33155;BME280;19511;42.682;23.332;2023-05-27T05:43:37;95226.38;;;15.92;100.00
33155;BME280;19511;42.682;23.332;2023-05-27T05:46:02;95235.00;;;15.97;100.00
33155;BME280;19511;42.682;23.332;2023-05-27T05:48:28;95211.44;;;15.98;100.00
33155;BME280;19511;42.682;23.332;2023-05-27T05:50:53;95226.75;;;16.07;100.00
33155;BME280;19511;42.682;23.332;2023-05-27T05:53:21;95229.34;;;16.14;100.00
33155;BME280;19511;42.682;23.332;2023-05-27T05:55:47;95234.34;;;16.19;100.00
33155;BME280;19511;42.682;23.332;2023-05-27T05:58:15;95216.16;;;16.14;100.00
33155;BME280;19511;42.682;23.332;2023-05-27T06:00:40;95239.59;;;16.17;100.00
33155;BME280;19511;42.682;23.332;2023-05-27T06:03:06;95164.06;;;15.56;100.00
33155;BME280;19511;42.682;23.332;2023-05-27T06:05:31;95231.88;;;15.95;100.00
33155;BME280;19511;42.682;23.332;2023-05-27T06:07:57;95238.81;;;16.16;100.00
33155;BME280;19511;42.682;23.332;2023-05-27T06:10:22;95236.44;;;16.15;100.00
33155;BME280;19511;42.682;23.332;2023-05-27T06:12:50;95245.19;;;16.30;100.00
33155;BME280;19511;42.682;23.332;2023-05-27T06:15:15;95234.91;;;16.40;100.00
33155;BME280;19511;42.682;23.332;2023-05-27T06:17:44;95215.69;;;16.29;100.00
33155;BME280;19511;42.682;23.332;2023-05-27T06:20:09;95236.94;;;16.39;100.00
33155;BME280;19511;42.682;23.332;2023-05-27T06:22:40;95242.94;;;16.38;100.00
33155;BME280;19511;42.682;23.332;2023-05-27T06:25:13;95238.06;;;16.42;100.00
33155;BME280;19511;42.682;23.332;2023-05-27T06:27:42;95206.09;;;16.17;100.00
33155;BME280;19511;42.682;23.332;2023-05-27T06:30:08;95247.53;;;16.44;100.00
33155;BME280;19511;42.682;23.332;2023-05-27T06:32:38;95244.75;;;16.57;100.00
33155;BME280;19511;42.682;23.332;2023-05-27T06:35:04;95186.13;;;16.19;100.00
33155;BME280;19511;42.682;23.332;2023-05-27T06:37:30;95250.34;;;16.57;100.00
33155;BME280;19511;42.682;23.332;2023-05-27T06:39:55;95258.16;;;16.62;100.00
33155;BME280;19511;42.682;23.332;2023-05-27T06:42:21;95252.44;;;16.66;100.00
33155;BME280;19511;42.682;23.332;2023-05-27T06:44:51;95239.47;;;16.46;100.00
33155;BME280;19511;42.682;23.332;2023-05-27T06:47:16;95248.19;;;16.61;100.00
33155;BME280;19511;42.682;23.332;2023-05-27T06:49:42;95209.78;;;16.40;100.00
33155;BME280;19511;42.682;23.332;2023-05-27T06:52:07;95202.75;;;16.48;100.00
33155;BME280;19511;42.682;23.332;2023-05-27T06:54:33;95254.78;;;16.93;100.00
33155;BME280;19511;42.682;23.332;2023-05-27T06:56:59;95191.56;;;16.74;100.00
33155;BME280;19511;42.682;23.332;2023-05-27T06:59:25;95185.84;;;16.77;100.00
33155;BME280;19511;42.682;23.332;2023-05-27T07:01:50;95264.88;;;17.26;100.00
33155;BME280;19511;42.682;23.332;2023-05-27T07:04:16;95200.66;;;16.87;100.00
33155;BME280;19511;42.682;23.332;2023-05-27T07:06:42;95249.41;;;17.34;100.00
33155;BME280;19511;42.682;23.332;2023-05-27T07:09:11;95262.13;;;17.48;100.00
33155;BME280;19511;42.682;23.332;2023-05-27T07:11:36;95264.03;;;17.51;100.00
33155;BME280;19511;42.682;23.332;2023-05-27T07:14:02;95265.66;;;17.61;100.00
33155;BME280;19511;42.682;23.332;2023-05-27T07:16:27;95250.63;;;17.46;100.00
33155;BME280;19511;42.682;23.332;2023-05-27T07:18:57;95259.47;;;17.67;100.00
33155;BME280;19511;42.682;23.332;2023-05-27T07:21:30;95253.75;;;17.70;100.00
33155;BME280;19511;42.682;23.332;2023-05-27T07:24:02;95264.66;;;17.55;100.00
33155;BME280;19511;42.682;23.332;2023-05-27T07:26:32;95185.34;;;17.05;100.00
33155;BME280;19511;42.682;23.332;2023-05-27T07:29:01;95210.91;;;17.16;100.00
33155;BME280;19511;42.682;23.332;2023-05-27T07:31:31;95252.91;;;17.60;100.00
33155;BME280;19511;42.682;23.332;2023-05-27T07:34:00;95166.59;;;17.27;100.00
33155;BME280;19511;42.682;23.332;2023-05-27T07:36:33;95256.09;;;17.72;100.00
33155;BME280;19511;42.682;23.332;2023-05-27T07:39:06;95259.06;;;17.77;100.00
33155;BME280;19511;42.682;23.332;2023-05-27T07:41:32;95261.81;;;17.90;100.00
33155;BME280;19511;42.682;23.332;2023-05-27T07:43:58;95255.72;;;18.05;100.00
33155;BME280;19511;42.682;23.332;2023-05-27T07:46:27;95262.06;;;18.27;100.00
33155;BME280;19511;42.682;23.332;2023-05-27T07:48:53;95241.25;;;18.28;100.00
33155;BME280;19511;42.682;23.332;2023-05-27T07:51:19;95257.00;;;18.13;100.00
33155;BME280;19511;42.682;23.332;2023-05-27T07:53:45;95253.03;;;18.01;100.00
33155;BME280;19511;42.682;23.332;2023-05-27T07:56:10;95249.84;;;18.12;100.00
33155;BME280;19511;42.682;23.332;2023-05-27T07:58:36;95248.38;;;17.98;100.00
33155;BME280;19511;42.682;23.332;2023-05-27T08:01:01;95257.59;;;18.08;100.00
33155;BME280;19511;42.682;23.332;2023-05-27T08:03:27;95246.56;;;18.04;100.00
33155;BME280;19511;42.682;23.332;2023-05-27T08:05:57;95258.91;;;18.16;100.00
33155;BME280;19511;42.682;23.332;2023-05-27T08:08:23;95254.28;;;18.22;100.00
33155;BME280;19511;42.682;23.332;2023-05-27T08:10:48;95256.53;;;18.46;100.00
33155;BME280;19511;42.682;23.332;2023-05-27T08:13:14;95256.00;;;18.60;100.00
33155;BME280;19511;42.682;23.332;2023-05-27T08:15:39;95186.59;;;17.92;100.00
33155;BME280;19511;42.682;23.332;2023-05-27T08:18:09;95254.78;;;18.08;100.00
33155;BME280;19511;42.682;23.332;2023-05-27T08:20:34;95264.97;;;18.15;100.00
33155;BME280;19511;42.682;23.332;2023-05-27T08:23:00;95247.78;;;18.03;100.00
33155;BME280;19511;42.682;23.332;2023-05-27T08:25:25;95257.38;;;18.24;100.00
33155;BME280;19511;42.682;23.332;2023-05-27T08:27:53;95258.56;;;18.14;100.00
33155;BME280;19511;42.682;23.332;2023-05-27T08:30:26;95258.97;;;18.03;100.00
33155;BME280;19511;42.682;23.332;2023-05-27T08:32:56;95248.59;;;18.13;100.00
33155;BME280;19511;42.682;23.332;2023-05-27T08:35:22;95237.72;;;18.15;100.00
33155;BME280;19511;42.682;23.332;2023-05-27T08:37:48;95261.81;;;18.13;100.00
33155;BME280;19511;42.682;23.332;2023-05-27T08:40:14;95269.22;;;18.28;100.00
33155;BME280;19511;42.682;23.332;2023-05-27T08:42:46;95271.97;;;18.51;100.00
33155;BME280;19511;42.682;23.332;2023-05-27T08:45:11;95190.78;;;17.88;100.00
33155;BME280;19511;42.682;23.332;2023-05-27T08:47:41;95225.63;;;18.18;100.00
33155;BME280;19511;42.682;23.332;2023-05-27T08:50:08;95231.25;;;18.18;100.00
33155;BME280;19511;42.682;23.332;2023-05-27T08:52:39;95233.44;;;18.23;100.00
33155;BME280;19511;42.682;23.332;2023-05-27T08:55:07;95254.94;;;18.36;100.00
33155;BME280;19511;42.682;23.332;2023-05-27T08:57:36;95200.94;;;17.94;100.00
33155;BME280;19511;42.682;23.332;2023-05-27T09:00:02;95183.34;;;17.94;100.00
33155;BME280;19511;42.682;23.332;2023-05-27T09:02:36;95241.25;;;18.28;100.00
33155;BME280;19511;42.682;23.332;2023-05-27T09:05:02;95184.00;;;17.76;100.00
33155;BME280;19511;42.682;23.332;2023-05-27T09:07:27;95254.16;;;18.04;100.00
33155;BME280;19511;42.682;23.332;2023-05-27T09:09:57;95250.88;;;17.83;100.00
33155;BME280;19511;42.682;23.332;2023-05-27T09:12:27;95247.63;;;17.85;100.00
33155;BME280;19511;42.682;23.332;2023-05-27T09:14:57;95241.13;;;17.88;100.00
33155;BME280;19511;42.682;23.332;2023-05-27T09:17:23;95239.75;;;17.92;100.00
33155;BME280;19511;42.682;23.332;2023-05-27T09:19:53;95186.50;;;17.74;100.00
33155;BME280;19511;42.682;23.332;2023-05-27T09:22:23;95183.69;;;17.74;100.00
33155;BME280;19511;42.682;23.332;2023-05-27T09:24:51;95253.66;;;18.27;100.00
33155;BME280;19511;42.682;23.332;2023-05-27T09:27:19;95242.47;;;18.27;100.00
33155;BME280;19511;42.682;23.332;2023-05-27T09:29:44;95247.81;;;18.35;100.00
33155;BME280;19511;42.682;23.332;2023-05-27T09:32:10;95225.28;;;18.48;100.00
33155;BME280;19511;42.682;23.332;2023-05-27T09:34:39;95237.47;;;18.63;100.00
33155;BME280;19511;42.682;23.332;2023-05-27T09:37:14;95229.56;;;18.71;100.00
33155;BME280;19511;42.682;23.332;2023-05-27T09:39:42;95222.38;;;18.60;100.00
33155;BME280;19511;42.682;23.332;2023-05-27T09:42:08;95231.75;;;18.76;100.00
33155;BME280;19511;42.682;23.332;2023-05-27T09:44:36;95209.59;;;18.50;100.00
33155;BME280;19511;42.682;23.332;2023-05-27T09:47:08;95216.81;;;18.79;100.00
33155;BME280;19511;42.682;23.332;2023-05-27T09:49:37;95154.06;;;18.58;100.00
33155;BME280;19511;42.682;23.332;2023-05-27T09:52:05;95148.59;;;18.54;100.00
33155;BME280;19511;42.682;23.332;2023-05-27T09:54:32;95211.75;;;19.05;100.00
33155;BME280;19511;42.682;23.332;2023-05-27T09:57:02;95212.88;;;19.17;100.00
33155;BME280;19511;42.682;23.332;2023-05-27T09:59:31;95213.94;;;19.01;100.00
33155;BME280;19511;42.682;23.332;2023-05-27T10:01:57;95140.66;;;18.53;100.00
33155;BME280;19511;42.682;23.332;2023-05-27T10:04:25;95212.84;;;19.08;100.00
33155;BME280;19511;42.682;23.332;2023-05-27T10:06:52;95210.66;;;19.12;100.00
33155;BME280;19511;42.682;23.332;2023-05-27T10:09:18;95204.44;;;19.45;100.00
33155;BME280;19511;42.682;23.332;2023-05-27T10:11:44;95152.13;;;19.33;100.00
33155;BME280;19511;42.682;23.332;2023-05-27T10:14:10;95206.31;;;19.57;100.00
33155;BME280;19511;42.682;23.332;2023-05-27T10:16:37;95210.22;;;19.60;100.00
33155;BME280;19511;42.682;23.332;2023-05-27T10:19:09;95205.06;;;19.86;100.00
33155;BME280;19511;42.682;23.332;2023-05-27T10:21:42;95194.13;;;19.79;100.00
33155;BME280;19511;42.682;23.332;2023-05-27T10:24:10;95205.25;;;19.83;100.00
33155;BME280;19511;42.682;23.332;2023-05-27T10:26:40;95132.78;;;19.53;100.00
33155;BME280;19511;42.682;23.332;2023-05-27T10:29:10;95200.38;;;20.02;100.00
33155;BME280;19511;42.682;23.332;2023-05-27T10:31:57;95195.47;;;20.21;100.00
33155;BME280;19511;42.682;23.332;2023-05-27T10:34:42;95194.13;;;19.98;100.00
33155;BME280;19511;42.682;23.332;2023-05-27T10:37:19;95205.97;;;20.02;100.00
33155;BME280;19511;42.682;23.332;2023-05-27T10:40:00;95187.53;;;20.19;100.00
33155;BME280;19511;42.682;23.332;2023-05-27T10:42:26;95190.94;;;20.23;100.00
33155;BME280;19511;42.682;23.332;2023-05-27T10:45:04;95189.03;;;20.30;100.00
33155;BME280;19511;42.682;23.332;2023-05-27T10:47:30;95190.13;;;20.32;100.00
33155;BME280;19511;42.682;23.332;2023-05-27T10:50:09;95181.91;;;20.19;100.00
33155;BME280;19511;42.682;23.332;2023-05-27T10:52:42;95112.78;;;19.70;100.00
33155;BME280;19511;42.682;23.332;2023-05-27T10:55:11;95173.84;;;20.03;100.00
33155;BME280;19511;42.682;23.332;2023-05-27T10:57:36;95184.63;;;19.95;100.00
33155;BME280;19511;42.682;23.332;2023-05-27T11:00:04;95174.22;;;19.77;100.00
33155;BME280;19511;42.682;23.332;2023-05-27T11:02:38;95113.16;;;19.44;100.00
33155;BME280;19511;42.682;23.332;2023-05-27T11:05:13;95163.91;;;19.93;100.00
33155;BME280;19511;42.682;23.332;2023-05-27T11:07:39;95175.56;;;20.00;100.00
33155;BME280;19511;42.682;23.332;2023-05-27T11:10:07;95167.97;;;19.82;100.00
33155;BME280;19511;42.682;23.332;2023-05-27T11:12:33;95157.22;;;19.62;100.00
33155;BME280;19511;42.682;23.332;2023-05-27T11:14:58;95166.75;;;19.83;100.00
33155;BME280;19511;42.682;23.332;2023-05-27T11:17:32;95160.78;;;20.00;100.00
33155;BME280;19511;42.682;23.332;2023-05-27T11:19:59;95096.72;;;19.70;100.00
33155;BME280;19511;42.682;23.332;2023-05-27T11:22:24;95161.59;;;20.25;100.00
33155;BME280;19511;42.682;23.332;2023-05-27T11:25:00;95163.69;;;20.48;100.00
33155;BME280;19511;42.682;23.332;2023-05-27T11:27:36;95162.63;;;20.03;100.00
33155;BME280;19511;42.682;23.332;2023-05-27T11:30:09;95143.44;;;20.35;100.00
33155;BME280;19511;42.682;23.332;2023-05-27T11:32:36;95149.38;;;20.70;100.00
33155;BME280;19511;42.682;23.332;2023-05-27T11:35:01;95139.81;;;20.77;100.00
33155;BME280;19511;42.682;23.332;2023-05-27T11:37:32;95131.75;;;20.61;100.00
33155;BME280;19511;42.682;23.332;2023-05-27T11:39:57;95144.81;;;20.97;100.00
33155;BME280;19511;42.682;23.332;2023-05-27T11:42:23;95133.63;;;21.12;100.00
33155;BME280;19511;42.682;23.332;2023-05-27T11:44:53;95129.88;;;20.91;100.00
33155;BME280;19511;42.682;23.332;2023-05-27T11:47:22;95058.69;;;20.61;100.00
33155;BME280;19511;42.682;23.332;2023-05-27T11:49:52;95127.06;;;21.15;100.00
33155;BME280;19511;42.682;23.332;2023-05-27T11:52:18;95130.38;;;21.29;100.00
33155;BME280;19511;42.682;23.332;2023-05-27T11:54:55;95118.34;;;21.43;100.00
33155;BME280;19511;42.682;23.332;2023-05-27T11:57:24;95121.03;;;21.62;100.00
33155;BME280;19511;42.682;23.332;2023-05-27T11:59:50;95112.16;;;21.54;100.00
33155;BME280;19511;42.682;23.332;2023-05-27T12:02:19;95109.59;;;21.80;100.00
33155;BME280;19511;42.682;23.332;2023-05-27T12:04:49;95113.34;;;21.92;100.00
33155;BME280;19511;42.682;23.332;2023-05-27T12:07:14;95088.69;;;21.87;100.00
33155;BME280;19511;42.682;23.332;2023-05-27T12:09:43;95109.63;;;22.16;100.00
33155;BME280;19511;42.682;23.332;2023-05-27T12:12:12;95088.44;;;22.21;100.00
33155;BME280;19511;42.682;23.332;2023-05-27T12:14:41;95088.28;;;21.49;100.00
33155;BME280;19511;42.682;23.332;2023-05-27T12:17:06;95092.19;;;21.97;100.00
33155;BME280;19511;42.682;23.332;2023-05-27T12:19:36;95092.22;;;22.32;100.00
33155;BME280;19511;42.682;23.332;2023-05-27T12:22:02;95073.94;;;22.28;100.00
33155;BME280;19511;42.682;23.332;2023-05-27T12:24:28;95083.22;;;22.13;100.00
33155;BME280;19511;42.682;23.332;2023-05-27T12:26:53;95065.06;;;22.14;100.00
33155;BME280;19511;42.682;23.332;2023-05-27T12:29:23;95052.97;;;22.29;100.00
33155;BME280;19511;42.682;23.332;2023-05-27T12:31:53;95057.78;;;22.43;100.00
33155;BME280;19511;42.682;23.332;2023-05-27T12:34:18;95052.81;;;22.17;100.00
33155;BME280;19511;42.682;23.332;2023-05-27T12:36:44;95049.44;;;21.98;100.00
33155;BME280;19511;42.682;23.332;2023-05-27T12:39:10;95056.66;;;21.84;100.00
33155;BME280;19511;42.682;23.332;2023-05-27T12:41:39;95055.53;;;21.61;100.00
33155;BME280;19511;42.682;23.332;2023-05-27T12:44:08;95057.31;;;21.49;100.00
33155;BME280;19511;42.682;23.332;2023-05-27T12:46:34;95048.41;;;21.81;100.00
33155;BME280;19511;42.682;23.332;2023-05-27T12:48:59;94991.34;;;21.35;100.00